Grand Marsh, WI (53936)

3:39 AM CDT on August 28, 2016 (GMT -0500)
Rural Adams County, WI | | Change Station
Active Advisory: Dense Fog Advisory

Elev 951 ft 43.83 °N, 89.78 °W | Updated 3 seconds ago

Fog
Fog
65.1 °F
Feels Like 65.1 °F
N
0.3
Wind Variable Wind from WNW
Gusts 3.1 mph

Today
High -- | Low -- °F
--% Chance of Precip.
Yesterday
High -- | Low -- °F
Precip. -- in
Pressure 30.13 in
Visibility 0.2 miles
Clouds Overcast 200 ft
Dew Point 65 °F
Humidity 99%
Rainfall 0.00 in
Snow Depth Not available.
6:18 AM 7:40 PM
Waning Crescent, 17% visible
METAR KDLL 280810Z AUTO 00000KT M1/4SM FG OVC002 16/15 A3013 RMK AO2 T01600153
Pressure 30.13 in
Visibility 0.2 miles
Clouds Overcast 200 ft
Dew Point 65 °F
Humidity 99%
Rainfall 0.00 in
Snow Depth Not available.
6:18 AM 7:40 PM
Waning Crescent, 17% visible
METAR KDLL 280810Z AUTO 00000KT M1/4SM FG OVC002 16/15 A3013 RMK AO2 T01600153

10-Day Weather Forecast

Almanac

Astronomy

Aug. 28, 2016 Rise Set
Actual Time
Civil Twilight
Nautical Twilight
Astronomical Twilight
Moon
Length of Visible Light
Length of Day
Tomorrow will be .
, % of the Moon is Illuminated

Today's Extremes

State Highs State Lows

Community

WunderPhotos

Upload Photos

1,935,540 photos uploaded!

WunderBlog® & News

Nearby

Air Quality

  Air Quality AQ Index Pollutant
Not available.

Snow Depth

Station Depth Elevation

Earthquake Activity

City Distance Mag. Time & Date
Minimum magnitude displayed is 2.5.

Coastal Water Temperatures

Place Temperature

Stations

Nearby Weather Stations

Station Location Temp. Windchill Dew Point Humidity Wind Precip. Elev Updated Type
                   

Watches & Warnings

Dense Fog Advisory
Issued: 3:33 AM CDT Aug. 28, 2016 – National Weather Service

... Dense fog advisory in effect until 10 am CDT this morning...

The National Weather Service in La Crosse has issued a dense fog
advisory... which is in effect until 10 am CDT this morning.

* Visibilities 1/4 mile or less.

* Travel will be impacted through mid-morning due to the severely
restricted visibility.

Precautionary/preparedness actions...

A dense fog advisory means visibilities will frequently be
reduced to less than one quarter mile. If driving... slow down...
use your headlights... and leave plenty of distance ahead of you.